createdAt,value
2023-09-17T00:02:33.381Z,7.15
2023-09-17T00:05:37.012Z,7.40
2023-09-17T00:08:39.851Z,7.30
2023-09-17T00:11:43.072Z,7.22
2023-09-17T00:14:46.604Z,7.78
2023-09-17T00:17:50.784Z,7.82
2023-09-17T00:20:53.634Z,7.50
2023-09-17T00:23:56.566Z,7.03
2023-09-17T00:26:59.726Z,7.90
2023-09-17T00:30:02.693Z,7.95
2023-09-17T00:33:05.765Z,7.60
2023-09-17T00:36:08.919Z,8.00
2023-09-17T00:39:11.585Z,7.95
2023-09-17T00:42:14.835Z,7.85
2023-09-17T00:45:17.825Z,7.90
2023-09-17T00:48:21.235Z,7.75
2023-09-17T00:51:24.313Z,7.62
2023-09-17T00:54:30.217Z,7.78
2023-09-17T00:57:33.091Z,7.70
2023-09-17T01:00:39.674Z,7.70
2023-09-17T01:03:42.640Z,7.90
2023-09-17T01:06:48.067Z,8.50
2023-09-17T01:09:53.443Z,7.93
2023-09-17T01:12:58.098Z,8.77
2023-09-17T01:16:00.798Z,8.05
2023-09-17T01:19:05.229Z,8.52
2023-09-17T01:22:14.121Z,8.43
2023-09-17T01:25:20.182Z,8.03
2023-09-17T01:28:23.562Z,8.75
2023-09-17T01:31:28.446Z,8.23
2023-09-17T01:34:33.774Z,8.35
2023-09-17T01:37:40.778Z,8.15
2023-09-17T01:40:44.962Z,8.20
2023-09-17T01:43:49.107Z,8.52
2023-09-17T01:46:53.052Z,8.13
2023-09-17T01:49:59.715Z,8.35
2023-09-17T01:53:02.678Z,8.32
2023-09-17T01:56:05.924Z,8.50
2023-09-17T01:59:08.744Z,7.70
2023-09-17T02:02:12.105Z,7.95
2023-09-17T02:05:17.691Z,8.40
2023-09-17T02:08:20.549Z,8.02
2023-09-17T02:11:24.670Z,8.25
2023-09-17T02:14:27.534Z,7.95
2023-09-17T02:17:30.950Z,8.10
2023-09-17T02:20:38.565Z,7.90
2023-09-17T02:23:41.536Z,8.32
2023-09-17T02:26:45.610Z,8.95
2023-09-17T02:29:48.378Z,7.70
2023-09-17T02:32:51.560Z,8.40
2023-09-17T02:35:54.916Z,8.20
2023-09-17T02:38:58.218Z,8.05
2023-09-17T02:42:01.125Z,8.27
2023-09-17T02:45:06.202Z,7.70
2023-09-17T02:48:09.141Z,7.45
2023-09-17T02:51:12.120Z,7.85
2023-09-17T02:54:15.716Z,8.55
2023-09-17T02:57:18.948Z,8.30
2023-09-17T03:00:22.893Z,8.57
2023-09-17T03:03:26.158Z,8.50
2023-09-17T03:06:29.110Z,8.43
2023-09-17T03:09:32.118Z,8.85
2023-09-17T03:12:34.843Z,8.95
2023-09-17T03:15:38.598Z,8.32
2023-09-17T03:18:46.097Z,7.93
2023-09-17T03:21:49.232Z,8.60
2023-09-17T03:25:03.758Z,8.40
2023-09-17T03:28:08.077Z,8.68
2023-09-17T03:31:11.075Z,8.55
2023-09-17T03:34:14.516Z,8.30
2023-09-17T03:37:17.179Z,8.05
2023-09-17T03:40:20.891Z,8.30
2023-09-17T03:43:25.356Z,7.80
2023-09-17T03:46:28.450Z,8.30
2023-09-17T03:49:32.689Z,8.50
2023-09-17T03:52:38.927Z,8.27
2023-09-17T03:55:42.063Z,8.40
2023-09-17T03:58:49.659Z,7.90
2023-09-17T04:01:53.616Z,7.78
2023-09-17T04:04:56.686Z,8.25
2023-09-17T04:07:59.300Z,8.43
2023-09-17T04:11:02.397Z,8.70
2023-09-17T04:14:06.537Z,8.50
2023-09-17T04:17:11.222Z,9.02
2023-09-17T04:20:19.752Z,8.23
2023-09-17T04:23:26.160Z,8.88
2023-09-17T04:26:30.743Z,8.43
2023-09-17T04:29:33.870Z,8.52
2023-09-17T04:32:39.258Z,8.20
2023-09-17T04:35:42.550Z,8.40
2023-09-17T04:38:45.668Z,8.70
2023-09-17T04:41:51.408Z,8.48
2023-09-17T04:44:54.803Z,8.70
2023-09-17T04:47:57.857Z,8.15
2023-09-17T04:51:01.662Z,8.05
2023-09-17T04:54:10.002Z,8.52
2023-09-17T04:57:12.742Z,8.48
2023-09-17T05:00:16.032Z,8.18
2023-09-17T05:03:20.480Z,8.50
2023-09-17T05:06:24.500Z,8.65
2023-09-17T05:09:27.786Z,8.70
2023-09-17T05:12:30.929Z,8.13
2023-09-17T05:15:33.988Z,8.35
2023-09-17T05:18:36.897Z,8.05
2023-09-17T05:21:39.760Z,8.60
2023-09-17T05:24:42.957Z,8.20
2023-09-17T05:27:47.297Z,7.53
2023-09-17T05:30:56.869Z,8.68
2023-09-17T05:33:59.788Z,8.27
2023-09-17T05:37:03.105Z,7.80
2023-09-17T05:40:06.701Z,8.20
2023-09-17T05:43:10.172Z,7.82
2023-09-17T05:46:14.173Z,7.95
2023-09-17T05:49:17.920Z,8.82
2023-09-17T05:52:22.572Z,7.85
2023-09-17T05:55:25.864Z,8.30
2023-09-17T05:58:29.036Z,7.80
2023-09-17T06:01:32.847Z,7.50
2023-09-17T06:04:36.216Z,7.47
2023-09-17T06:07:39.209Z,7.72
2023-09-17T06:10:42.640Z,7.80
2023-09-17T06:13:45.644Z,7.72
2023-09-17T06:16:57.348Z,7.72
2023-09-17T06:20:02.033Z,7.70
2023-09-17T06:23:05.557Z,7.15
2023-09-17T06:26:10.329Z,7.18
2023-09-17T06:29:13.949Z,6.40
2023-09-17T06:32:17.101Z,5.97
2023-09-17T06:35:20.323Z,5.82
2023-09-17T06:38:23.053Z,5.93
2023-09-17T06:41:26.705Z,5.95
2023-09-17T06:44:31.008Z,6.03
2023-09-17T06:47:34.645Z,6.00
2023-09-17T06:50:37.322Z,5.47
2023-09-17T06:53:40.927Z,4.90
2023-09-17T06:56:43.687Z,4.68
2023-09-17T06:59:48.163Z,4.62
2023-09-17T07:02:51.011Z,4.65
2023-09-17T07:05:54.231Z,4.60
2023-09-17T07:08:58.456Z,4.90
2023-09-17T07:12:01.582Z,4.68
2023-09-17T07:15:07.080Z,4.70
2023-09-17T07:18:11.855Z,4.93
2023-09-17T07:21:14.906Z,4.50
2023-09-17T07:24:18.087Z,5.05
2023-09-17T07:27:20.943Z,5.00
2023-09-17T07:30:24.008Z,4.55
2023-09-17T07:33:26.802Z,4.87
2023-09-17T07:36:30.932Z,5.43
2023-09-17T07:39:33.765Z,5.20
2023-09-17T07:42:37.032Z,4.40
2023-09-17T07:45:39.573Z,4.60
2023-09-17T07:48:42.662Z,4.68
2023-09-17T07:51:45.579Z,4.50
2023-09-17T07:54:48.414Z,5.10
2023-09-17T07:57:52.433Z,4.50
2023-09-17T08:00:55.669Z,6.50
2023-09-17T08:03:59.084Z,5.55
2023-09-17T08:07:02.284Z,5.20
2023-09-17T08:10:05.973Z,5.20
2023-09-17T08:13:10.141Z,5.50
2023-09-17T08:16:13.502Z,5.45
2023-09-17T08:19:16.606Z,5.35
2023-09-17T08:22:19.965Z,5.37
2023-09-17T08:25:22.687Z,5.50
2023-09-17T08:28:25.569Z,5.68
2023-09-17T08:31:29.484Z,5.57
2023-09-17T08:34:33.886Z,5.10
2023-09-17T08:37:37.785Z,5.05
2023-09-17T08:40:41.879Z,5.20
2023-09-17T08:43:47.023Z,5.20
2023-09-17T08:46:53.096Z,5.90
2023-09-17T08:49:55.949Z,5.85
2023-09-17T08:53:03.432Z,5.55
2023-09-17T08:56:07.963Z,6.20
2023-09-17T08:59:14.316Z,5.70
2023-09-17T09:02:25.481Z,6.62
2023-09-17T09:05:29.633Z,6.32
2023-09-17T09:08:32.758Z,7.22
2023-09-17T09:11:36.571Z,6.68
2023-09-17T09:14:41.485Z,6.62
2023-09-17T09:17:44.881Z,7.40
2023-09-17T09:20:48.501Z,8.00
2023-09-17T09:23:51.911Z,7.50
2023-09-17T09:26:56.505Z,10.70
2023-09-17T09:30:06.123Z,8.30
2023-09-17T09:33:09.287Z,8.65
2023-09-17T09:36:13.323Z,8.35
2023-09-17T09:39:17.299Z,8.75
2023-09-17T09:42:22.675Z,8.63
2023-09-17T09:45:25.574Z,8.82
2023-09-17T09:48:29.511Z,8.30
2023-09-17T09:51:33.070Z,8.13
2023-09-17T09:54:38.925Z,8.23
2023-09-17T09:57:43.409Z,8.50
2023-09-17T10:00:46.774Z,9.25
2023-09-17T10:03:52.312Z,9.15
2023-09-17T10:06:57.203Z,8.10
2023-09-17T10:10:01.530Z,9.15
2023-09-17T10:13:07.669Z,8.50
2023-09-17T10:16:12.072Z,9.20
2023-09-17T10:19:20.068Z,8.75
2023-09-17T10:22:24.635Z,9.00
2023-09-17T10:25:30.040Z,9.38
2023-09-17T10:28:35.803Z,8.90
2023-09-17T10:31:40.410Z,8.90
2023-09-17T10:34:43.823Z,8.45
2023-09-17T10:37:48.074Z,8.60
2023-09-17T10:40:51.982Z,8.20
2023-09-17T10:43:57.259Z,8.60
2023-09-17T10:47:02.563Z,8.07
2023-09-17T10:50:05.840Z,8.48
2023-09-17T10:53:08.973Z,7.37
2023-09-17T10:56:15.037Z,7.53
2023-09-17T10:59:19.294Z,7.00
2023-09-17T11:02:27.361Z,7.57
2023-09-17T11:05:33.947Z,7.22
2023-09-17T11:08:36.909Z,7.50
2023-09-17T11:11:41.201Z,6.60
2023-09-17T11:14:47.312Z,6.85
2023-09-17T11:17:51.894Z,6.35
2023-09-17T11:21:08.212Z,6.87
2023-09-17T11:24:12.802Z,6.43
2023-09-17T11:27:19.799Z,6.05
2023-09-17T11:30:25.729Z,6.10
2023-09-17T11:33:28.922Z,6.53
2023-09-17T11:36:33.343Z,7.07
2023-09-17T11:39:37.918Z,6.03
2023-09-17T11:42:42.208Z,6.22
2023-09-17T11:45:46.292Z,6.62
2023-09-17T11:48:49.240Z,6.50
2023-09-17T11:51:53.141Z,6.45
2023-09-17T11:55:13.371Z,6.35
2023-09-17T11:58:22.594Z,6.40
2023-09-17T12:01:27.913Z,6.53
2023-09-17T12:04:32.856Z,6.10
2023-09-17T12:07:45.668Z,6.03
2023-09-17T12:11:08.309Z,5.57
2023-09-17T12:14:11.565Z,5.43
2023-09-17T12:17:17.714Z,5.53
2023-09-17T12:21:02.534Z,5.30
2023-09-17T12:24:09.784Z,6.32
2023-09-17T12:27:36.863Z,5.78
2023-09-17T12:30:41.037Z,6.15
2023-09-17T12:33:44.634Z,5.87
2023-09-17T12:36:47.624Z,6.82
2023-09-17T12:39:51.179Z,6.10
2023-09-17T12:42:54.362Z,6.50
2023-09-17T12:45:57.465Z,7.05
2023-09-17T12:49:01.644Z,6.47
2023-09-17T12:52:07.545Z,6.28
2023-09-17T12:55:10.927Z,6.53
2023-09-17T12:58:14.311Z,6.93
2023-09-17T13:01:17.592Z,6.55
2023-09-17T13:04:20.773Z,6.78
2023-09-17T13:07:26.756Z,6.20
2023-09-17T13:10:29.862Z,6.20
2023-09-17T13:13:33.001Z,6.72
2023-09-17T13:16:35.705Z,6.78
2023-09-17T13:19:38.895Z,6.72
2023-09-17T13:22:42.057Z,6.20
2023-09-17T13:25:45.521Z,6.05
2023-09-17T13:28:53.670Z,6.55
2023-09-17T13:35:00.068Z,6.28
2023-09-17T13:38:03.715Z,6.37
2023-09-17T13:41:06.750Z,6.75
2023-09-17T13:44:10.032Z,6.82
2023-09-17T13:47:13.396Z,6.68
2023-09-17T13:50:16.981Z,6.35
2023-09-17T13:53:20.366Z,6.90
2023-09-17T13:56:23.754Z,6.65
2023-09-17T13:59:26.368Z,6.80
2023-09-17T14:02:29.561Z,6.50
2023-09-17T14:05:32.961Z,7.20
2023-09-17T14:08:36.534Z,6.65
2023-09-17T14:11:40.119Z,7.20
2023-09-17T14:14:43.172Z,7.25
2023-09-17T14:17:46.574Z,7.95
2023-09-17T14:20:49.177Z,8.20
2023-09-17T14:23:52.037Z,8.73
2023-09-17T14:26:55.021Z,8.07
2023-09-17T14:29:58.436Z,7.97
2023-09-17T14:33:02.062Z,8.68
2023-09-17T14:36:05.452Z,8.98
2023-09-17T14:39:10.738Z,9.07
2023-09-17T14:42:15.532Z,8.73
2023-09-17T14:45:18.527Z,8.82
2023-09-17T14:48:21.594Z,8.70
2023-09-17T14:51:24.701Z,9.35
2023-09-17T14:54:27.957Z,8.48
2023-09-17T14:57:34.852Z,9.30
2023-09-17T15:00:38.250Z,9.23
2023-09-17T15:03:41.418Z,9.00
2023-09-17T15:06:44.851Z,8.75
2023-09-17T15:09:49.101Z,10.20
2023-09-17T15:12:52.290Z,9.57
2023-09-17T15:15:55.224Z,10.00
2023-09-17T15:18:59.077Z,10.38
2023-09-17T15:22:02.184Z,9.90
2023-09-17T15:25:05.770Z,9.88
2023-09-17T15:28:08.872Z,9.63
2023-09-17T15:31:12.140Z,10.40
2023-09-17T15:34:15.833Z,10.15
2023-09-17T15:37:19.178Z,10.60
2023-09-17T15:40:22.159Z,10.07
2023-09-17T15:43:25.797Z,10.45
2023-09-17T15:46:29.164Z,10.88
2023-09-17T15:49:32.873Z,10.60
2023-09-17T15:52:36.685Z,10.80
2023-09-17T15:55:41.128Z,10.70
2023-09-17T15:58:44.480Z,10.68
2023-09-17T16:01:47.959Z,10.40
2023-09-17T16:04:51.716Z,10.98
2023-09-17T16:07:55.133Z,10.57
2023-09-17T16:10:59.005Z,11.65
2023-09-17T16:14:03.691Z,10.73
2023-09-17T16:17:07.218Z,11.35
2023-09-17T16:20:10.809Z,10.98
2023-09-17T16:23:17.159Z,10.75
2023-09-17T16:26:21.407Z,10.10
2023-09-17T16:29:25.064Z,10.27
2023-09-17T16:32:29.795Z,10.77
2023-09-17T16:35:33.400Z,11.25
2023-09-17T16:38:36.431Z,10.73
2023-09-17T16:41:39.807Z,10.55
2023-09-17T16:44:45.950Z,10.65
2023-09-17T16:47:49.499Z,10.27
2023-09-17T16:50:52.969Z,10.52
2023-09-17T16:53:57.487Z,11.25
2023-09-17T16:57:00.627Z,11.57
2023-09-17T17:00:05.089Z,10.52
2023-09-17T17:03:08.357Z,10.65
2023-09-17T17:06:12.378Z,10.88
2023-09-17T17:09:15.466Z,10.80
2023-09-17T17:12:19.152Z,10.52
2023-09-17T17:15:22.651Z,11.20
2023-09-17T17:18:26.889Z,10.45
2023-09-17T17:21:30.125Z,10.95
2023-09-17T17:24:34.762Z,10.77
2023-09-17T17:27:38.077Z,10.82
2023-09-17T17:30:42.266Z,11.60
2023-09-17T17:33:45.706Z,10.93
2023-09-17T17:36:49.303Z,11.65
2023-09-17T17:39:53.457Z,12.23
2023-09-17T17:42:57.203Z,11.73
2023-09-17T17:46:01.412Z,12.80
2023-09-17T17:49:05.167Z,13.80
2023-09-17T17:52:08.994Z,12.25
2023-09-17T17:55:12.666Z,12.32
2023-09-17T17:58:16.965Z,12.77
2023-09-17T18:01:20.730Z,12.77
2023-09-17T18:04:24.194Z,13.07
2023-09-17T18:07:28.577Z,12.70
2023-09-17T18:10:31.992Z,12.80
2023-09-17T18:13:35.077Z,12.50
2023-09-17T18:16:38.790Z,12.73
2023-09-17T18:19:42.053Z,12.30
2023-09-17T18:22:47.178Z,12.80
2023-09-17T18:25:50.956Z,12.93
2023-09-17T18:28:58.179Z,13.15
2023-09-17T18:32:02.346Z,14.00
2023-09-17T18:35:06.412Z,14.20
2023-09-17T18:38:09.500Z,13.88
2023-09-17T18:41:13.341Z,13.73
2023-09-17T18:44:20.867Z,14.13
2023-09-17T18:47:25.560Z,13.88
2023-09-17T18:50:29.307Z,12.82
2023-09-17T18:53:32.981Z,12.30
2023-09-17T18:56:36.144Z,11.43
2023-09-17T18:59:40.359Z,11.98
2023-09-17T19:02:44.985Z,10.93
2023-09-17T19:05:48.806Z,11.38
2023-09-17T19:08:52.406Z,12.10
2023-09-17T19:11:56.170Z,11.35
2023-09-17T19:15:00.495Z,12.70
2023-09-17T19:18:04.439Z,11.68
2023-09-17T19:21:13.180Z,12.00
2023-09-17T19:24:16.875Z,11.40
2023-09-17T19:27:20.005Z,11.70
2023-09-17T19:30:23.470Z,11.38
2023-09-17T19:33:26.852Z,10.88
2023-09-17T19:36:30.676Z,11.50
2023-09-17T19:39:34.055Z,11.02
2023-09-17T19:42:37.477Z,11.60
2023-09-17T19:45:44.908Z,11.00
2023-09-17T19:48:49.241Z,11.25
2023-09-17T19:51:52.928Z,11.57
2023-09-17T19:54:56.552Z,11.15
2023-09-17T19:57:59.789Z,11.38
2023-09-17T20:01:04.012Z,11.43
2023-09-17T20:04:07.603Z,11.30
2023-09-17T20:07:10.913Z,11.50
2023-09-17T20:10:17.734Z,12.25
2023-09-17T20:13:21.003Z,12.00
2023-09-17T20:16:25.273Z,11.80
2023-09-17T20:19:28.039Z,11.50
2023-09-17T20:22:31.424Z,11.23
2023-09-17T20:25:34.747Z,10.75
2023-09-17T20:28:38.842Z,11.12
2023-09-17T20:31:41.555Z,10.95
2023-09-17T20:34:44.637Z,10.82
2023-09-17T20:37:47.262Z,10.95
2023-09-17T20:40:50.640Z,10.68
2023-09-17T20:43:53.599Z,10.23
2023-09-17T20:46:56.869Z,10.60
2023-09-17T20:49:59.748Z,10.55
2023-09-17T20:53:03.373Z,11.07
2023-09-17T20:56:06.314Z,10.50
2023-09-17T20:59:09.239Z,10.25
2023-09-17T21:02:11.849Z,11.45
2023-09-17T21:05:16.387Z,10.68
2023-09-17T21:08:22.058Z,10.55
2023-09-17T21:11:25.177Z,10.27
2023-09-17T21:14:28.172Z,10.50
2023-09-17T21:17:31.756Z,10.50
2023-09-17T21:20:34.877Z,11.40
2023-09-17T21:23:39.461Z,11.15
2023-09-17T21:26:42.001Z,10.48
2023-09-17T21:29:45.151Z,9.82
2023-09-17T21:32:48.129Z,9.30
2023-09-17T21:35:51.245Z,9.52
2023-09-17T21:38:54.493Z,9.07
2023-09-17T21:41:58.477Z,8.98
2023-09-17T21:45:01.595Z,9.25
2023-09-17T21:48:05.058Z,9.50
2023-09-17T21:51:08.970Z,9.10
2023-09-17T21:54:12.155Z,8.70
2023-09-17T21:57:22.444Z,9.43
2023-09-17T22:00:25.379Z,9.85
2023-09-17T22:03:28.713Z,9.85
2023-09-17T22:06:31.782Z,9.82
2023-09-17T22:09:34.925Z,10.05
2023-09-17T22:12:37.925Z,10.07
2023-09-17T22:15:41.032Z,10.43
2023-09-17T22:18:43.723Z,10.38
2023-09-17T22:21:46.929Z,10.30
2023-09-17T22:24:49.571Z,10.75
2023-09-17T22:27:54.631Z,10.15
2023-09-17T22:30:59.367Z,10.93
2023-09-17T22:34:02.605Z,10.45
2023-09-17T22:37:05.450Z,10.48
2023-09-17T22:40:09.160Z,10.60
2023-09-17T22:43:12.182Z,11.38
2023-09-17T22:46:16.526Z,11.32
2023-09-17T22:49:19.609Z,11.20
2023-09-17T22:52:22.828Z,11.45
2023-09-17T22:55:25.568Z,10.98
2023-09-17T22:58:31.967Z,11.52
2023-09-17T23:01:35.738Z,11.43
2023-09-17T23:04:39.042Z,10.48
2023-09-17T23:07:41.658Z,10.70
2023-09-17T23:10:44.755Z,10.75
2023-09-17T23:13:48.238Z,10.73
2023-09-17T23:16:51.166Z,11.05
2023-09-17T23:19:54.757Z,10.38
2023-09-17T23:22:58.030Z,10.80
2023-09-17T23:26:02.598Z,10.30
2023-09-17T23:29:07.770Z,10.32
2023-09-17T23:32:15.253Z,10.80
2023-09-17T23:35:18.630Z,10.38
2023-09-17T23:38:21.361Z,10.40
2023-09-17T23:41:24.970Z,10.70
2023-09-17T23:44:27.975Z,10.02
2023-09-17T23:47:31.825Z,9.93
2023-09-17T23:50:35.425Z,9.75
2023-09-17T23:53:38.888Z,9.90
2023-09-17T23:56:42.206Z,9.07
2023-09-17T23:59:47.251Z,9.70
